North Bend, WA

5:57 AM PST on February 09, 2016 (GMT -0800)
Mt Si Road | | Change Station
CLOSE
Current Station
Personal Weather Station
Location: North Bend, WA
Elevation: 545 ft
Nearby Weather Stations

Elev 545 ft 47.48 °N, 121.75 °W | Updated 12 seconds ago

Mostly Cloudy
Mostly Cloudy
57.4 °F
Feels Like 57.4 °F
N
2.0
Wind Variable Wind from SE
Gusts 10.0 mph

Today
High -- | Low -- °F
--% Chance of Precip.
Yesterday
High -- | Low -- °F
Precip. -- in
Pressure 30.22 in
Visibility 4.0 miles
Clouds Few 500 ft
Dew Point 39 °F
Humidity 50%
Rainfall 0.00 in
Snow Depth Not available.
7:22 AM 5:20 PM
New Moon, 1% visible
METAR KRNT 091353Z AUTO 15004KT 4SM BR FEW005 04/03 A3021 RMK AO2 SLP234 T00440033
Pressure 30.22 in
Visibility 4.0 miles
Clouds Few 500 ft
Dew Point 39 °F
Humidity 50%
Rainfall 0.00 in
Snow Depth Not available.
7:22 AM 5:20 PM
New Moon, 1% visible
METAR KRNT 091353Z AUTO 15004KT 4SM BR FEW005 04/03 A3021 RMK AO2 SLP234 T00440033

10-Day Weather Forecast

Almanac

Astronomy

Feb. 09, 2016 Rise Set
Actual Time
Civil Twilight
Nautical Twilight
Astronomical Twilight
Moon
Length of Visible Light
Length of Day
Tomorrow will be .
, % of the Moon is Illuminated

Today's Extremes

State Highs State Lows

Community

WunderPhotos

Upload Photos

1,891,591 photos uploaded!

WunderBlog® & News

Nearby

Air Quality

  Air Quality AQ Index Pollutant
Not available.

Snow Depth

Station Depth Elevation

Earthquake Activity

City Distance Mag. Time & Date
Minimum magnitude displayed is 2.5.

Coastal Water Temperatures

Place Temperature

Stations

Nearby Weather Stations

Station Location Temp. Windchill Dew Point Humidity Wind Precip. Elev Updated Type
                   

Watches & Warnings

There are currently no watches in effect.